Time;durP1;ratioP1;P1;durP2;ratioP2;P2;SDS_P1;SDS_P2;PMS_P1;PMS_P2;Temp;Humidity;BMP_temperature;BMP_pressure;BME280_temperature;BME280_humidity;BME280_pressure;Samples;Min_cycle;Max_cycle;Signal;HPM_P1;HPM_P2
2023/06/14 00:01:31;;;;;;;2.80;2.60;;;;;;;18.11;49.40;101037.00;5052066;28;20236;-74
2023/06/14 00:03:58;;;;;;;2.60;2.40;;;;;;;18.05;49.47;101033.69;5051621;28;20559;-74
2023/06/14 00:06:25;;;;;;;3.43;2.60;;;;;;;18.05;49.47;101024.91;5051929;28;20208;-73
2023/06/14 00:08:51;;;;;;;4.87;2.93;;;;;;;18.00;49.95;101021.59;5051430;28;20257;-74
2023/06/14 00:11:19;;;;;;;2.73;2.43;;;;;;;17.98;49.98;101018.16;5051798;28;20207;-74
2023/06/14 00:13:46;;;;;;;6.50;2.47;;;;;;;17.93;49.75;101020.13;5051388;28;20213;-74
2023/06/14 00:16:13;;;;;;;2.93;2.63;;;;;;;17.93;49.73;101023.63;5051849;28;20593;-74
2023/06/14 00:18:39;;;;;;;2.60;2.40;;;;;;;17.92;50.08;101035.13;5051912;28;20233;-74
2023/06/14 00:21:06;;;;;;;2.60;2.37;;;;;;;17.86;50.27;101030.09;5051805;28;20212;-74
2023/06/14 00:23:32;;;;;;;2.70;2.50;;;;;;;17.77;50.33;101033.03;5047253;28;20736;-74
2023/06/14 00:25:59;;;;;;;2.90;2.60;;;;;;;17.78;50.37;101022.44;5031428;28;20256;-74
2023/06/14 00:28:26;;;;;;;2.87;2.67;;;;;;;17.75;50.34;101024.31;5031557;28;20280;-74
2023/06/14 00:30:53;;;;;;;3.07;2.53;;;;;;;17.68;50.65;101023.72;5031792;28;20214;-74
2023/06/14 00:33:19;;;;;;;2.93;2.73;;;;;;;17.59;50.79;101018.78;5031440;28;20267;-73
2023/06/14 00:35:46;;;;;;;3.00;2.60;;;;;;;17.51;51.28;100997.13;5031774;28;20480;-74
2023/06/14 00:38:13;;;;;;;2.40;2.20;;;;;;;17.41;51.41;100992.19;5031463;28;20236;-74
2023/06/14 00:40:39;;;;;;;3.20;3.00;;;;;;;17.31;51.68;100987.31;5031441;28;20268;-74
2023/06/14 00:43:06;;;;;;;3.00;2.80;;;;;;;17.27;51.90;100976.88;5031575;28;20233;-74
2023/06/14 00:45:35;;;;;;;3.27;2.57;;;;;;;17.20;52.39;100962.19;5031655;28;20272;-74
2023/06/14 00:48:02;;;;;;;7.93;2.77;;;;;;;17.15;52.62;100952.75;5031381;28;20296;-74
2023/06/14 00:50:31;;;;;;;4.37;2.50;;;;;;;17.09;52.73;100948.56;5031640;28;20280;-74
2023/06/14 00:52:58;;;;;;;3.23;2.53;;;;;;;17.07;52.80;100939.84;5031319;28;20210;-74
2023/06/14 00:55:25;;;;;;;3.87;3.27;;;;;;;16.96;52.98;100934.97;5031042;28;20207;-74
2023/06/14 00:57:52;;;;;;;3.33;2.70;;;;;;;16.91;53.25;100933.41;5031346;28;20229;-74
2023/06/14 01:00:19;;;;;;;3.13;2.83;;;;;;;16.90;53.71;100922.00;5031194;28;20642;-74
2023/06/14 01:02:47;;;;;;;3.03;2.83;;;;;;;16.82;53.86;100914.38;5031306;28;20214;-74
2023/06/14 01:05:15;;;;;;;2.80;2.60;;;;;;;16.80;53.73;100900.38;5031679;28;20249;-74
2023/06/14 01:07:53;;;;;;;4.00;2.50;;;;;;;16.84;53.37;100904.63;5031844;28;20211;-74
2023/06/14 01:10:33;;;;;;;3.33;2.60;;;;;;;16.88;53.13;100919.41;5031722;28;20638;-74
2023/06/14 01:13:08;;;;;;;2.77;2.57;;;;;;;16.92;53.21;100927.22;5031688;28;20298;-74
2023/06/14 01:15:35;;;;;;;3.87;2.60;;;;;;;16.91;53.18;100930.78;5031166;28;20288;-74
2023/06/14 01:18:06;;;;;;;3.80;3.00;;;;;;;16.87;53.25;100930.91;5031069;28;20226;-74
2023/06/14 01:20:36;;;;;;;3.93;2.40;;;;;;;16.83;53.30;100939.00;5032764;28;20210;-74
2023/06/14 01:23:04;;;;;;;3.20;2.60;;;;;;;16.81;53.18;100933.78;5034474;28;20713;-74
2023/06/14 01:25:31;;;;;;;2.80;2.60;;;;;;;16.80;53.48;100939.91;5034730;28;20458;-74
2023/06/14 01:28:01;;;;;;;3.57;2.60;;;;;;;16.75;53.66;100936.59;5034647;28;20206;-73
2023/06/14 01:30:28;;;;;;;3.23;2.90;;;;;;;16.70;53.84;100937.69;5034758;28;20627;-73
2023/06/14 01:32:56;;;;;;;2.73;2.53;;;;;;;16.62;54.18;100932.69;5034165;28;20683;-73
2023/06/14 01:35:23;;;;;;;4.70;2.90;;;;;;;16.57;54.39;100917.03;5034793;28;20206;-73
2023/06/14 01:37:51;;;;;;;2.97;2.77;;;;;;;16.41;54.85;100908.84;5034538;28;20222;-73
2023/06/14 01:40:22;;;;;;;2.80;2.60;;;;;;;16.38;54.90;100893.13;5034523;28;20233;-73
2023/06/14 01:42:50;;;;;;;3.07;2.77;;;;;;;16.37;54.78;100887.91;5034281;28;20203;-73
2023/06/14 01:45:17;;;;;;;3.10;2.80;;;;;;;16.31;55.13;100888.97;5034264;28;20221;-73
2023/06/14 01:47:44;;;;;;;3.07;2.73;;;;;;;16.35;54.94;100892.34;5034486;28;20209;-74
2023/06/14 01:50:11;;;;;;;3.00;2.80;;;;;;;16.38;54.82;100885.22;5034167;28;20226;-73
2023/06/14 01:52:38;;;;;;;5.33;2.70;;;;;;;16.43;54.36;100887.66;5034346;28;20264;-73
2023/06/14 01:55:05;;;;;;;2.87;2.67;;;;;;;16.39;54.40;100894.84;5034093;28;20214;-73
2023/06/14 01:57:33;;;;;;;3.07;2.70;;;;;;;16.37;54.72;100904.59;5033989;28;20333;-73
2023/06/14 01:59:59;;;;;;;4.13;2.97;;;;;;;16.35;54.50;100903.78;5033965;28;20284;-73
2023/06/14 02:02:25;;;;;;;2.90;2.60;;;;;;;16.34;54.99;100906.47;5033995;28;20245;-74
2023/06/14 02:04:52;;;;;;;3.23;2.90;;;;;;;16.31;54.86;100903.94;5034116;28;20260;-74
2023/06/14 02:07:18;;;;;;;2.97;2.77;;;;;;;16.26;54.96;100898.84;5033870;28;20664;-74
2023/06/14 02:09:45;;;;;;;3.43;2.43;;;;;;;16.25;55.19;100899.72;5033823;28;20579;-74
2023/06/14 02:12:11;;;;;;;4.03;2.90;;;;;;;16.20;55.41;100892.00;5033669;28;20202;-74
2023/06/14 02:14:39;;;;;;;4.13;2.93;;;;;;;16.11;55.88;100887.03;5033808;28;20217;-74
2023/06/14 02:17:06;;;;;;;4.03;3.03;;;;;;;16.10;55.71;100884.47;5033956;28;20203;-74
2023/06/14 02:19:32;;;;;;;3.57;2.90;;;;;;;16.05;55.95;100882.88;5033848;28;20226;-74
2023/06/14 02:21:59;;;;;;;3.53;2.50;;;;;;;16.06;55.95;100871.41;5033661;28;20260;-74
2023/06/14 02:24:25;;;;;;;3.00;2.80;;;;;;;16.00;56.34;100874.25;5033528;28;20299;-74
2023/06/14 02:26:51;;;;;;;2.60;2.40;;;;;;;15.94;56.45;100860.44;5033564;28;20248;-74
2023/06/14 02:29:18;;;;;;;3.10;2.80;;;;;;;15.76;57.47;100859.31;5033435;28;20279;-74
2023/06/14 02:31:46;;;;;;;3.13;2.83;;;;;;;15.61;57.98;100843.06;5033472;28;20284;-75
2023/06/14 02:34:13;;;;;;;6.70;2.90;;;;;;;15.48;58.72;100818.94;5033276;28;20206;-74
2023/06/14 02:36:41;;;;;;;3.13;2.87;;;;;;;15.50;58.77;100800.47;5033460;28;20210;-74
2023/06/14 02:39:09;;;;;;;3.53;2.90;;;;;;;15.48;58.91;100790.00;5033229;28;20328;-75
2023/06/14 02:41:35;;;;;;;3.23;3.03;;;;;;;15.40;59.36;100791.16;5033144;28;20206;-74
2023/06/14 02:44:02;;;;;;;3.40;3.10;;;;;;;15.29;59.37;100779.22;5033057;28;20260;-74
2023/06/14 02:46:28;;;;;;;2.90;2.70;;;;;;;15.38;59.23;100771.94;5033061;28;20210;-74
2023/06/14 02:48:56;;;;;;;3.23;2.93;;;;;;;15.41;59.22;100772.69;5033335;28;20229;-74
2023/06/14 02:51:22;;;;;;;4.00;2.63;;;;;;;15.34;59.92;100779.09;5032993;28;20213;-74
2023/06/14 02:53:49;;;;;;;2.73;2.53;;;;;;;15.19;59.57;100772.56;5032817;28;20210;-74
2023/06/14 02:56:17;;;;;;;3.13;2.83;;;;;;;15.14;60.12;100765.72;5032556;28;20645;-74
2023/06/14 02:58:43;;;;;;;3.83;2.80;;;;;;;15.11;60.31;100769.31;5032859;28;20265;-74
2023/06/14 03:01:13;;;;;;;3.40;2.90;;;;;;;15.03;60.84;100771.34;5033023;28;20272;-74
2023/06/14 03:03:40;;;;;;;3.30;3.00;;;;;;;14.97;61.19;100754.00;5032565;28;20202;-74
2023/06/14 03:06:08;;;;;;;3.70;2.87;;;;;;;14.86;61.87;100740.31;5032813;28;20553;-74
2023/06/14 03:08:38;;;;;;;2.90;2.70;;;;;;;14.91;61.87;100729.69;5032586;28;20226;-74
2023/06/14 03:11:05;;;;;;;2.60;2.40;;;;;;;14.84;61.86;100721.13;5032950;28;20229;-74
2023/06/14 03:13:33;;;;;;;4.87;3.00;;;;;;;14.82;61.75;100715.91;5032496;28;20198;-74
2023/06/14 03:16:02;;;;;;;4.00;2.90;;;;;;;14.91;61.55;100725.28;5032799;28;20210;-75
2023/06/14 03:18:29;;;;;;;4.23;2.90;;;;;;;14.86;61.94;100732.44;5032524;28;20272;-74
2023/06/14 03:20:56;;;;;;;2.57;2.37;;;;;;;14.92;61.69;100728.75;5032549;28;20217;-74
2023/06/14 03:23:25;;;;;;;2.97;2.70;;;;;;;14.88;62.20;100736.75;5032162;28;20245;-74
2023/06/14 03:25:51;;;;;;;5.07;3.20;;;;;;;14.89;61.89;100727.94;5032599;28;20206;-74
2023/06/14 03:28:18;;;;;;;3.00;2.80;;;;;;;14.89;62.01;100729.72;5032510;28;20264;-74
2023/06/14 03:30:44;;;;;;;3.67;3.10;;;;;;;14.85;62.01;100728.94;5032579;28;20213;-74
2023/06/14 03:33:11;;;;;;;3.00;2.70;;;;;;;14.77;62.43;100733.59;5032474;28;20214;-74
2023/06/14 03:35:37;;;;;;;3.23;3.00;;;;;;;14.82;62.16;100722.94;5032295;28;20292;-74
2023/06/14 03:38:04;;;;;;;3.33;2.80;;;;;;;14.91;62.07;100727.91;5032031;28;20296;-74
2023/06/14 03:40:31;;;;;;;10.60;3.27;;;;;;;14.88;62.90;100730.63;5032449;28;20248;-74
2023/06/14 03:42:58;;;;;;;3.70;3.40;;;;;;;14.74;62.85;100738.09;5031669;28;20253;-74
2023/06/14 03:45:24;;;;;;;3.23;2.60;;;;;;;14.81;62.35;100740.47;5032193;28;20613;-74
2023/06/14 03:47:51;;;;;;;3.20;2.90;;;;;;;14.92;62.19;100744.53;5031872;28;20676;-74
2023/06/14 03:50:18;;;;;;;3.50;3.20;;;;;;;14.92;62.45;100749.78;5031817;28;20599;-74
2023/06/14 03:52:44;;;;;;;3.00;2.80;;;;;;;14.99;62.17;100753.94;5032093;28;20345;-74
2023/06/14 03:55:13;;;;;;;3.20;3.00;;;;;;;15.01;61.80;100758.25;5031686;28;20738;-73
2023/06/14 03:57:40;;;;;;;4.20;2.90;;;;;;;15.03;62.28;100771.34;5031850;28;20206;-74
2023/06/14 04:00:09;;;;;;;4.17;3.40;;;;;;;15.05;61.88;100780.03;5031788;28;20731;-74
2023/06/14 04:02:36;;;;;;;3.10;2.87;;;;;;;15.07;62.05;100772.97;5031826;28;20212;-74
2023/06/14 04:05:03;;;;;;;3.83;2.83;;;;;;;15.08;62.24;100785.19;5032318;28;20229;-74
2023/06/14 04:07:29;;;;;;;2.87;2.67;;;;;;;15.09;61.49;100795.66;5032020;28;20639;-74
2023/06/14 04:09:56;;;;;;;3.50;2.97;;;;;;;15.09;61.38;100795.66;5031917;28;20280;-73
2023/06/14 04:12:22;;;;;;;2.80;2.60;;;;;;;15.10;61.33;100807.03;5031803;28;20209;-74
2023/06/14 04:14:51;;;;;;;3.67;3.00;;;;;;;15.08;61.56;100801.84;5031797;28;20619;-74
2023/06/14 04:17:17;;;;;;;3.77;3.00;;;;;;;15.09;61.33;100811.44;5031707;28;20210;-74
2023/06/14 04:19:43;;;;;;;3.43;2.87;;;;;;;15.13;61.57;100811.34;5031869;28;20225;-74
2023/06/14 04:22:11;;;;;;;3.10;2.83;;;;;;;15.14;61.95;100803.38;5029589;28;20626;-74
2023/06/14 04:24:37;;;;;;;3.47;3.07;;;;;;;15.15;61.78;100804.28;5031539;28;20225;-74
2023/06/14 04:27:04;;;;;;;2.77;2.57;;;;;;;15.15;61.34;100813.00;5046626;28;20618;-74
2023/06/14 04:29:31;;;;;;;3.07;2.87;;;;;;;15.16;61.67;100824.38;5051540;28;20229;-74
2023/06/14 04:34:33;;;;;;;2.70;2.50;;;;;;;15.15;61.92;100806.91;5029145;28;20233;-76
2023/06/14 04:37:01;;;;;;;2.63;2.43;;;;;;;15.19;62.09;100812.00;5031471;28;20210;-76
2023/06/14 04:39:28;;;;;;;2.90;2.70;;;;;;;15.21;62.15;100814.59;5031646;28;20226;-76
2023/06/14 04:41:56;;;;;;;3.10;2.90;;;;;;;15.23;62.17;100805.72;5031817;28;20210;-76
2023/06/14 04:44:29;;;;;;;4.00;2.87;;;;;;;15.25;61.93;100814.44;5031557;28;20206;-76
2023/06/14 04:46:56;;;;;;;3.13;2.80;;;;;;;15.26;62.90;100817.91;5031484;28;20206;-76
2023/06/14 04:49:23;;;;;;;2.60;2.40;;;;;;;15.31;63.10;100807.25;5031750;28;20229;-76
2023/06/14 04:51:57;;;;;;;2.93;2.70;;;;;;;15.35;62.52;100806.25;5031965;28;20212;-76
2023/06/14 04:54:24;;;;;;;3.00;2.67;;;;;;;15.33;63.25;100803.66;5032268;28;20209;-76
2023/06/14 04:56:51;;;;;;;3.70;2.60;;;;;;;15.35;62.95;100799.22;5035266;28;20293;-76
2023/06/14 04:59:18;;;;;;;2.47;2.27;;;;;;;15.41;63.03;100800.78;5035092;28;20233;-76
2023/06/14 05:01:48;;;;;;;2.40;2.10;;;;;;;15.45;63.11;100798.00;5035570;28;20238;-76
2023/06/14 05:04:14;;;;;;;2.40;2.20;;;;;;;15.50;63.09;100805.75;5035124;28;20686;-76
2023/06/14 05:06:41;;;;;;;3.07;2.20;;;;;;;15.52;63.52;100801.28;5035239;28;20206;-76
2023/06/14 05:09:08;;;;;;;2.97;2.00;;;;;;;15.57;63.55;100799.34;5035333;28;20257;-76
2023/06/14 05:11:35;;;;;;;2.30;2.10;;;;;;;15.63;63.48;100795.66;5035680;28;20271;-76
2023/06/14 05:14:01;;;;;;;2.33;2.10;;;;;;;15.68;63.73;100794.59;5034739;28;20285;-76
2023/06/14 05:16:29;;;;;;;2.20;2.00;;;;;;;15.72;63.76;100794.47;5034899;28;20614;-76
2023/06/14 05:18:55;;;;;;;2.03;1.93;;;;;;;15.79;63.50;100796.00;5034983;28;20268;-76
2023/06/14 05:21:22;;;;;;;2.17;2.00;;;;;;;15.85;63.65;100798.44;5033531;28;20203;-76
2023/06/14 05:23:48;;;;;;;2.70;2.50;;;;;;;15.89;63.18;100797.41;5034320;28;20206;-76
2023/06/14 05:26:16;;;;;;;2.37;2.17;;;;;;;15.97;62.93;100811.16;5034551;28;20202;-76
2023/06/14 05:28:42;;;;;;;2.10;2.00;;;;;;;16.01;62.88;100823.28;5034490;28;20234;-75
2023/06/14 05:31:09;;;;;;;1.90;1.80;;;;;;;16.06;62.88;100833.69;5034607;28;20680;-76
2023/06/14 05:33:35;;;;;;;2.70;2.43;;;;;;;16.13;62.29;100835.16;5034444;28;20236;-76
2023/06/14 05:36:02;;;;;;;2.20;2.10;;;;;;;16.15;61.88;100849.13;5034677;28;20210;-76
2023/06/14 05:38:28;;;;;;;3.13;2.00;;;;;;;16.18;62.17;100856.09;5034411;28;20257;-76
2023/06/14 05:40:54;;;;;;;2.23;1.93;;;;;;;16.23;62.17;100860.28;5034419;28;20206;-76
2023/06/14 05:43:23;;;;;;;2.07;1.90;;;;;;;16.28;61.54;100862.75;5034277;28;20256;-76
2023/06/14 05:45:50;;;;;;;2.27;2.07;;;;;;;16.31;61.91;100875.81;5034421;28;20202;-76
2023/06/14 05:48:16;;;;;;;1.83;1.73;;;;;;;16.34;62.04;100880.97;5035469;28;20202;-78
2023/06/14 05:50:42;;;;;;;2.17;2.00;;;;;;;16.36;61.71;100884.41;5037252;28;20214;-78
2023/06/14 05:53:09;;;;;;;2.73;2.07;;;;;;;16.42;61.62;100896.50;5034417;28;20264;-75
2023/06/14 05:55:36;;;;;;;1.80;1.70;;;;;;;16.45;61.79;100894.63;5033842;28;20198;-75
2023/06/14 05:58:03;;;;;;;2.07;1.97;;;;;;;16.49;61.97;100892.75;5034203;28;20210;-75
2023/06/14 06:00:30;;;;;;;2.80;2.20;;;;;;;16.56;62.46;100883.69;5034302;28;20209;-75
2023/06/14 06:02:57;;;;;;;2.53;2.10;;;;;;;16.59;62.67;100883.59;5033937;28;20279;-75
2023/06/14 06:05:24;;;;;;;2.13;1.93;;;;;;;16.66;62.11;100886.84;5034031;28;20201;-75
2023/06/14 06:07:51;;;;;;;5.13;2.53;;;;;;;16.71;62.68;100884.91;5033418;28;20610;-75
2023/06/14 06:10:17;;;;;;;3.23;2.87;;;;;;;16.78;62.40;100875.84;5033734;28;20248;-75
2023/06/14 06:12:44;;;;;;;2.77;2.53;;;;;;;16.83;61.42;100883.63;5033845;28;20202;-75
2023/06/14 06:15:11;;;;;;;2.93;2.70;;;;;;;16.84;60.66;100903.78;5033992;28;20210;-75
2023/06/14 06:17:40;;;;;;;2.83;2.63;;;;;;;16.87;60.95;100916.88;5033986;28;20209;-75
2023/06/14 06:20:08;;;;;;;3.17;2.93;;;;;;;16.90;61.19;100926.44;5033787;28;20295;-75
2023/06/14 06:22:34;;;;;;;4.43;2.87;;;;;;;16.91;61.90;100920.22;5033290;28;20214;-75
2023/06/14 06:25:01;;;;;;;3.03;2.73;;;;;;;16.94;60.95;100923.59;5033587;28;20217;-75
2023/06/14 06:27:27;;;;;;;2.57;2.37;;;;;;;16.98;61.04;100922.56;5033790;28;20245;-75
2023/06/14 06:29:54;;;;;;;2.93;2.70;;;;;;;17.02;61.24;100939.16;5033767;28;20272;-75
2023/06/14 06:32:20;;;;;;;3.73;3.00;;;;;;;17.04;61.49;100938.16;5033227;28;20214;-76
2023/06/14 06:34:48;;;;;;;3.30;3.00;;;;;;;17.09;61.11;100932.72;5033533;28;20206;-75
2023/06/14 06:37:15;;;;;;;3.10;2.80;;;;;;;17.14;60.97;100938.69;5033282;28;20205;-75
2023/06/14 06:39:41;;;;;;;2.90;2.60;;;;;;;17.17;61.29;100943.84;5033151;28;20596;-75
2023/06/14 06:42:08;;;;;;;3.40;3.20;;;;;;;17.22;60.89;100944.53;5033002;28;20702;-75
2023/06/14 06:44:34;;;;;;;5.57;3.27;;;;;;;17.26;61.53;100945.25;5033342;28;20233;-75
2023/06/14 06:47:00;;;;;;;3.40;2.93;;;;;;;17.32;62.04;100931.81;5033200;28;20210;-75
2023/06/14 06:49:27;;;;;;;4.20;2.77;;;;;;;17.36;61.53;100930.81;5033213;28;20226;-75
2023/06/14 06:52:03;;;;;;;2.73;2.53;;;;;;;17.42;61.03;100933.22;5033190;28;20206;-74
2023/06/14 06:54:29;;;;;;;3.27;2.70;;;;;;;17.49;59.16;100964.63;5026771;28;20242;-75
2023/06/14 06:56:56;;;;;;;2.83;2.63;;;;;;;17.50;59.26;100993.59;5050229;28;20208;-74
2023/06/14 06:59:23;;;;;;;3.07;2.50;;;;;;;17.53;59.65;101003.19;5053015;28;20291;-75
2023/06/14 07:01:49;;;;;;;3.30;2.33;;;;;;;17.53;59.40;101013.75;5052965;28;20216;-74
2023/06/14 07:04:16;;;;;;;3.37;2.73;;;;;;;17.56;59.18;101017.13;5046862;28;20199;-75
2023/06/14 07:06:43;;;;;;;3.30;2.70;;;;;;;17.62;59.00;101029.22;5032662;28;20202;-75
2023/06/14 07:09:12;;;;;;;2.70;2.50;;;;;;;17.62;59.87;101019.53;5032874;28;20747;-74
2023/06/14 07:11:39;;;;;;;3.07;2.77;;;;;;;17.67;59.82;101014.06;5032773;28;20795;-75
2023/06/14 07:14:05;;;;;;;2.73;2.53;;;;;;;17.74;58.74;101020.84;5032728;28;20264;-75
2023/06/14 07:16:32;;;;;;;2.60;1.97;;;;;;;17.78;58.93;101037.38;5033141;28;20248;-75
2023/06/14 07:18:58;;;;;;;2.03;1.93;;;;;;;17.85;57.89;101052.97;5031626;28;20238;-75
2023/06/14 07:21:25;;;;;;;3.50;2.30;;;;;;;17.88;56.98;101082.81;5032851;28;20210;-75
2023/06/14 07:23:52;;;;;;;3.00;2.00;;;;;;;17.90;56.75;101095.06;5032480;28;20210;-74
2023/06/14 07:26:19;;;;;;;3.77;1.90;;;;;;;17.95;56.11;101119.50;5032458;28;20260;-75
2023/06/14 07:28:47;;;;;;;2.00;1.90;;;;;;;17.98;55.84;101142.31;5032482;28;20230;-74
2023/06/14 07:31:15;;;;;;;2.00;1.90;;;;;;;18.00;55.98;101162.47;5032568;28;20236;-75
2023/06/14 07:33:41;;;;;;;2.00;1.90;;;;;;;18.02;55.62;101168.56;5031581;28;20296;-75
2023/06/14 07:36:08;;;;;;;2.17;1.97;;;;;;;18.04;56.45;101164.06;5032189;28;20206;-75
2023/06/14 07:38:36;;;;;;;3.13;1.90;;;;;;;18.11;56.04;101155.91;5032614;28;20222;-75
2023/06/14 07:41:03;;;;;;;1.73;1.57;;;;;;;18.19;56.00;101149.38;5032311;28;20212;-75
2023/06/14 07:43:30;;;;;;;3.13;1.97;;;;;;;18.30;57.31;101148.13;5032128;28;20206;-75
2023/06/14 07:45:57;;;;;;;1.87;1.77;;;;;;;18.36;55.99;101134.66;5032162;28;20605;-74
2023/06/14 07:48:24;;;;;;;3.80;2.13;;;;;;;18.39;55.71;101153.91;5032227;28;20252;-75
2023/06/14 07:50:50;;;;;;;2.00;1.90;;;;;;;18.40;56.41;101157.41;5032350;28;20265;-75
2023/06/14 07:53:17;;;;;;;2.20;1.90;;;;;;;18.42;56.90;101139.69;5032030;28;20650;-75
2023/06/14 07:55:43;;;;;;;3.50;2.20;;;;;;;18.53;56.83;101132.22;5031904;28;20370;-75
2023/06/14 07:58:10;;;;;;;3.50;2.00;;;;;;;18.58;56.01;101126.72;5031958;28;20638;-75
2023/06/14 08:00:38;;;;;;;2.73;1.90;;;;;;;18.62;55.86;101145.03;5031593;28;20325;-75
2023/06/14 08:03:04;;;;;;;4.90;2.10;;;;;;;18.67;56.15;101142.19;5031378;28;20745;-75
2023/06/14 08:05:31;;;;;;;2.43;2.23;;;;;;;18.75;55.31;101152.44;5031751;28;20614;-75
2023/06/14 08:07:57;;;;;;;2.60;2.40;;;;;;;18.75;55.22;101168.31;5014628;28;20615;-75
2023/06/14 08:10:24;;;;;;;1.87;1.70;;;;;;;18.75;55.98;101157.72;5012133;28;20230;-75
2023/06/14 08:12:51;;;;;;;2.00;1.90;;;;;;;18.82;55.53;101162.75;5012025;28;20210;-74
2023/06/14 08:15:18;;;;;;;2.53;2.33;;;;;;;18.80;54.76;101177.81;5011945;28;20294;-75
2023/06/14 08:17:46;;;;;;;2.43;2.23;;;;;;;18.79;55.18;101186.69;5012387;28;20207;-75
2023/06/14 08:20:15;;;;;;;2.33;2.13;;;;;;;18.79;55.31;101188.41;5012085;28;20235;-75
2023/06/14 08:22:42;;;;;;;2.03;1.93;;;;;;;18.80;54.51;101188.41;5011873;28;20207;-75
2023/06/14 08:25:10;;;;;;;2.20;2.00;;;;;;;18.87;54.45;101206.66;5012149;28;20210;-75
2023/06/14 08:27:37;;;;;;;2.10;1.90;;;;;;;18.94;54.43;101211.63;5011928;28;20206;-75
2023/06/14 08:30:04;;;;;;;2.33;2.00;;;;;;;19.00;54.97;101205.22;5013932;28;20361;-74
2023/06/14 08:32:30;;;;;;;1.70;1.60;;;;;;;19.07;54.14;101201.41;5015811;28;20218;-75
2023/06/14 08:34:58;;;;;;;2.10;1.93;;;;;;;19.14;53.53;101220.53;5026335;28;20205;-74
2023/06/14 08:37:27;;;;;;;2.37;1.80;;;;;;;19.21;53.68;101222.00;5035371;28;20209;-75
2023/06/14 08:39:53;;;;;;;6.30;2.10;;;;;;;19.25;52.38;101235.03;5035191;28;20329;-75
2023/06/14 08:42:22;;;;;;;3.87;2.37;;;;;;;19.30;52.39;101263.94;5034967;28;20210;-75
2023/06/14 08:44:48;;;;;;;1.80;1.70;;;;;;;19.36;52.12;101276.94;5035696;28;20259;-75
2023/06/14 08:47:17;;;;;;;2.07;1.97;;;;;;;19.42;51.75;101289.94;5034479;28;20621;-75
2023/06/14 08:49:48;;;;;;;2.27;2.00;;;;;;;19.44;52.14;101306.63;5035232;28;20226;-75
2023/06/14 08:52:19;;;;;;;2.70;2.20;;;;;;;19.50;51.92;101301.97;5035288;28;20218;-75
2023/06/14 08:54:48;;;;;;;1.90;1.80;;;;;;;19.53;51.74;101304.50;5035276;28;20210;-75
2023/06/14 08:57:16;;;;;;;2.57;2.00;;;;;;;19.57;52.53;101296.34;5035774;28;20598;-75
2023/06/14 08:59:49;;;;;;;1.90;1.80;;;;;;;19.66;52.34;101295.09;5035046;28;20329;-75
2023/06/14 09:02:17;;;;;;;1.90;1.67;;;;;;;19.75;50.68;101291.22;5035171;28;20224;-76
2023/06/14 09:04:44;;;;;;;1.60;1.50;;;;;;;19.80;51.06;101321.91;5035079;28;20229;-75
2023/06/14 09:07:10;;;;;;;2.20;1.73;;;;;;;19.83;50.84;101339.44;5034883;28;20220;-75
2023/06/14 09:09:41;;;;;;;1.70;1.60;;;;;;;19.84;49.66;101349.97;5035027;28;20280;-75
2023/06/14 09:12:10;;;;;;;1.80;1.70;;;;;;;19.84;49.35;101380.88;5035140;28;20272;-74
2023/06/14 09:14:39;;;;;;;1.80;1.70;;;;;;;19.84;50.25;101388.84;5035156;28;20253;-74
2023/06/14 09:17:06;;;;;;;1.80;1.53;;;;;;;19.84;52.05;101379.13;5034617;28;20217;-75
2023/06/14 09:19:34;;;;;;;1.60;1.50;;;;;;;19.93;52.03;101337.25;5034710;28;20592;-74
2023/06/14 09:22:00;;;;;;;1.60;1.50;;;;;;;20.01;50.19;101337.78;5034723;28;20245;-75
2023/06/14 09:24:27;;;;;;;1.67;1.57;;;;;;;20.08;49.79;101371.03;5034730;28;20255;-74
2023/06/14 09:26:55;;;;;;;1.77;1.67;;;;;;;20.07;49.88;101364.00;5034889;28;20213;-74
2023/06/14 09:29:21;;;;;;;2.60;2.23;;;;;;;20.13;49.87;101378.78;5034737;28;20230;-74
2023/06/14 09:31:48;;;;;;;1.70;1.60;;;;;;;20.19;49.90;101389.13;5034670;28;20276;-73
2023/06/14 09:34:17;;;;;;;1.70;1.60;;;;;;;20.23;49.88;101383.59;5034268;28;20218;-73
2023/06/14 09:36:44;;;;;;;2.47;1.67;;;;;;;20.28;49.83;101399.31;5034320;28;20206;-74
2023/06/14 09:39:11;;;;;;;1.60;1.50;;;;;;;20.33;48.71;101404.41;5034652;28;20238;-75
2023/06/14 09:41:39;;;;;;;2.00;1.90;;;;;;;20.37;48.60;101414.81;5033523;28;20338;-74
2023/06/14 09:44:09;;;;;;;1.90;1.80;;;;;;;20.39;48.75;101439.47;5034332;28;20229;-75
2023/06/14 09:46:36;;;;;;;2.40;1.70;;;;;;;20.40;49.00;101414.69;5034214;28;20198;-75
2023/06/14 09:49:03;;;;;;;1.80;1.70;;;;;;;20.48;49.20;101427.59;5034191;28;20279;-75
2023/06/14 09:51:31;;;;;;;1.80;1.60;;;;;;;20.53;47.90;101435.34;5034569;28;20275;-74
2023/06/14 09:54:00;;;;;;;2.53;1.70;;;;;;;20.59;47.44;101451.91;5034371;28;20210;-74
2023/06/14 09:56:29;;;;;;;2.90;1.63;;;;;;;20.64;47.64;101457.00;5034307;28;20300;-75
2023/06/14 09:58:57;;;;;;;1.80;1.70;;;;;;;20.67;48.16;101463.94;5034141;28;20225;-75
2023/06/14 10:01:27;;;;;;;2.03;1.40;;;;;;;20.67;48.11;101456.84;5033958;28;20240;-74
2023/06/14 10:03:56;;;;;;;1.80;1.70;;;;;;;20.74;47.51;101441.53;5033789;28;20210;-74
2023/06/14 10:06:24;;;;;;;3.60;1.97;;;;;;;20.77;49.11;101474.09;5025323;28;20289;-75
2023/06/14 10:08:51;;;;;;;1.60;1.50;;;;;;;20.83;51.21;101399.50;5033546;28;20737;-75
2023/06/14 10:11:18;;;;;;;1.70;1.60;;;;;;;20.90;47.28;101385.94;5034045;28;20256;-74
2023/06/14 10:13:45;;;;;;;2.77;1.83;;;;;;;20.93;48.99;101429.13;5033729;28;20283;-75
2023/06/14 10:16:18;;;;;;;3.07;1.80;;;;;;;21.01;47.89;101399.59;5033124;28;20206;-74
2023/06/14 10:18:51;;;;;;;3.83;2.30;;;;;;;21.08;46.44;101434.66;5033948;28;20273;-75
2023/06/14 10:21:26;;;;;;;1.70;1.53;;;;;;;21.13;46.31;101462.72;5033773;28;20702;-75
2023/06/14 10:23:53;;;;;;;1.87;1.77;;;;;;;21.21;46.11;101476.50;5033655;28;20306;-76
2023/06/14 10:26:22;;;;;;;1.70;1.60;;;;;;;21.26;46.02;101508.13;5032127;28;20267;-74
2023/06/14 10:28:58;;;;;;;1.40;1.30;;;;;;;21.31;45.12;101514.09;5034915;28;20229;-73
2023/06/14 10:31:41;;;;;;;3.60;1.83;;;;;;;21.39;45.57;101529.69;5014013;28;20747;-72
2023/06/14 10:34:09;;;;;;;1.70;1.60;;;;;;;21.50;45.82;101522.09;5038402;23;20321;-78
2023/06/14 10:36:35;;;;;;;1.73;1.63;;;;;;;21.61;46.22;101513.63;5034884;28;20210;-78
2023/06/14 10:39:05;;;;;;;1.57;1.50;;;;;;;21.73;46.73;101482.94;5034797;28;20218;-79
2023/06/14 10:41:35;;;;;;;2.03;1.70;;;;;;;21.89;46.37;101499.84;5034732;28;20743;-79
2023/06/14 10:44:38;;;;;;;2.00;1.73;;;;;;;22.05;47.20;101468.03;5035230;28;20252;-80
2023/06/14 10:47:08;;;;;;;2.30;1.60;;;;;;;22.18;45.32;101457.63;5033767;28;20206;-79
2023/06/14 10:49:41;;;;;;;1.90;1.80;;;;;;;22.29;44.09;101497.00;5035300;28;20213;-81
2023/06/14 10:52:16;;;;;;;2.03;1.83;;;;;;;22.41;44.57;101525.63;5035474;28;20213;-78
2023/06/14 10:55:10;;;;;;;1.97;1.87;;;;;;;22.56;43.99;101524.00;5036069;28;20232;-80
2023/06/14 10:57:38;;;;;;;1.90;1.80;;;;;;;22.66;43.79;101543.88;5029754;28;20207;-79
2023/06/14 11:00:12;;;;;;;2.30;1.70;;;;;;;22.72;43.17;101566.66;5035563;28;20358;-79
2023/06/14 11:03:23;;;;;;;2.00;1.90;;;;;;;22.71;43.07;101588.88;5035488;28;20209;-77
2023/06/14 11:05:53;;;;;;;2.60;1.80;;;;;;;22.80;45.52;101581.28;5036348;28;20676;-80
2023/06/14 11:08:40;;;;;;;3.40;2.07;;;;;;;22.84;43.51;101552.69;5035466;28;20296;-80
2023/06/14 11:11:07;;;;;;;1.80;1.70;;;;;;;22.98;43.87;101560.78;5037594;28;20198;-79
2023/06/14 11:13:35;;;;;;;2.27;2.13;;;;;;;23.18;43.54;101554.44;5039370;28;20222;-80
2023/06/14 11:16:01;;;;;;;2.63;1.80;;;;;;;23.26;42.51;101559.34;5038737;28;20209;-81
2023/06/14 11:18:29;;;;;;;2.53;2.00;;;;;;;23.31;43.29;101591.94;5037040;28;20272;-81
2023/06/14 11:20:57;;;;;;;2.57;2.37;;;;;;;23.32;43.35;101560.81;5033977;28;20225;-80
2023/06/14 11:23:23;;;;;;;3.03;2.30;;;;;;;23.30;43.13;101560.03;5033747;28;20253;-78
2023/06/14 11:25:53;;;;;;;5.47;2.63;;;;;;;23.29;44.08;101564.53;5034777;28;20240;-79
2023/06/14 11:28:21;;;;;;;2.23;1.90;;;;;;;23.44;46.04;101530.81;5034222;28;20728;-78
2023/06/14 11:30:48;;;;;;;2.30;2.10;;;;;;;23.68;43.05;101517.06;5034925;28;20209;-79